Latest Coastal Weather Observations for Aireys Inlet

IDV60701

Issued at 11:41 pm EST Tuesday 27 September 2016 (issued every 10 minutes, with the page automatically refreshed every 10 minutes)

About coastal observations | Map of coastal stations | Coastal observations for VIC | Marine services | Other Formats
Station Details ID: 090180 Name: AIREYS INLET Lat: -38.46 Lon: 144.09 Height: 105.0 m
Data from the previous 72 hours. | See also: Recent months at Aireys Inlet
Date/Time
EST
Temp
°C
Wind Pressure Rain since
9am
mm
Weather Cloud Vis
km
Sea
Height
m
Swell
Dir  Spd
kts
Gust
kts
hPa Trend Height
m
Period
s
Dir
27/11:30pm 9.7 NNW 6 7 - - 2.0 - - - - - - -
27/11:00pm 10.6 NNW 4 6 - - 2.0 - - - - - - -
27/10:30pm 9.7 NW 8 9 - - 2.0 - - - - - - -
27/10:00pm 8.4 NNW 6 8 - - 2.0 - - - - - - -
27/09:30pm 8.8 NNW 5 8 - - 2.0 - - - - - - -
27/09:00pm 9.0 NNW 5 6 - - 2.0 - - - - - - -
27/08:30pm 9.1 NNW 6 7 - - 2.0 - - - - - - -
27/08:00pm 9.5 NNW 6 8 - - 2.0 - - - - - - -
27/07:30pm 10.6 NNW 4 5 - - 2.0 - - - - - - -
27/07:00pm 11.5 NNW 3 3 - - 2.0 - - - - - - -
27/06:30pm 12.1 NNW 2 3 - - 2.0 - - - - - - -
27/06:00pm 13.1 W 3 4 - - 2.0 - - - - - - -
27/05:30pm 14.2 W 6 8 - - 2.0 - - - - - - -
27/05:00pm 13.6 W 7 13 - - 2.0 - - - - - - -
27/04:30pm 14.8 WNW 10 16 - - 2.0 - - - - - - -
27/04:00pm 15.0 W 11 15 - - 2.0 - - - - - - -
27/03:30pm 14.7 W 9 17 - - 2.0 - - - - - - -
27/03:00pm 14.3 WSW 11 19 - - 2.0 - - - - - - -
27/02:30pm 14.4 W 14 23 - - 2.0 - - - - - - -
27/02:00pm 14.7 W 10 15 - - 2.0 - - - - - - -
27/01:30pm 12.5 SW 5 9 - - 2.0 - - - - - - -
27/01:00pm 12.4 SSW 5 7 - - 2.0 - - - - - - -
27/12:30pm 11.9 SSW 8 16 - - 0.4 - - - - - - -
27/12:00pm 12.5 SSW 8 13 - - 0.0 - - - - - - -
27/11:30am 13.8 W 10 16 - - 0.0 - - - - - - -
27/11:00am 12.5 W 7 11 - - 0.0 - - - - - - -
27/10:30am 13.3 WNW 8 12 - - 0.0 - - - - - - -
27/10:00am 12.5 WNW 7 15 - - 0.0 - - - - - - -
27/09:30am 10.9 NW 9 16 - - 0.0 - - - - - - -
27/09:00am 9.8 NW 11 18 - - 1.4 - - - - - - -
27/08:30am 8.0 NW 16 21 - - 1.4 - - - - - - -
27/08:00am 8.0 NW 14 21 - - 1.4 - - - - - - -
27/07:30am 7.6 NW 14 22 - - 1.4 - - - - - - -
27/07:00am 6.9 NW 14 20 - - 1.4 - - - - - - -
27/06:30am 6.7 WNW 15 23 - - 1.4 - - - - - - -
27/06:00am 6.5 NW 9 14 - - 1.4 - - - - - - -
27/05:30am 6.6 WNW 2 6 - - 1.4 - - - - - - -
27/05:00am 6.7 W 4 9 - - 1.4 - - - - - - -
27/04:30am 6.9 NW 12 16 - - 1.4 - - - - - - -
27/04:00am 6.5 NW 9 14 - - 1.4 - - - - - - -
27/03:30am 6.7 NW 11 18 - - 1.4 - - - - - - -
27/03:00am 6.9 NW 12 19 - - 1.4 - - - - - - -
27/02:30am 6.9 NW 12 17 - - 1.4 - - - - - - -
27/02:00am 7.3 WNW 11 19 - - 1.4 - - - - - - -
27/01:30am 7.4 NW 10 14 - - 1.4 - - - - - - -
27/01:00am 7.5 NW 11 20 - - 1.4 - - - - - - -
27/12:30am 7.4 WNW 12 17 - - 1.4 - - - - - - -
27/12:00am 7.2 SW 3 6 - - 1.4 - - - - - - -
 
Date/Time
EST
Temp
°C
Wind Pressure Rain since
9am
mm
Weather Cloud Vis
km
Sea
Height
m
Swell
Dir  Spd
kts
Gust
kts
hPa Trend Height
m
Period
s
Dir
26/11:30pm 7.3 NW 9 13 - - 1.4 - - - - - - -
26/11:00pm 7.0 NW 6 11 - - 1.4 - - - - - - -
26/10:30pm 7.2 NW 6 9 - - 1.4 - - - - - - -
26/10:00pm 7.4 NW 10 13 - - 1.4 - - - - - - -
26/09:30pm 7.5 NW 10 13 - - 1.4 - - - - - - -
26/09:00pm 7.4 NNW 6 10 - - 1.4 - - - - - - -
26/08:30pm 7.5 NW 9 13 - - 1.4 - - - - - - -
26/08:00pm 7.2 NW 15 22 - - 1.4 - - - - - - -
26/07:37pm 7.9 WNW 15 25 - - 0.8 - - - - - - -
26/07:30pm 8.2 WNW 18 25 - - 0.6 - - - - - - -
26/07:14pm 8.8 WNW 17 27 - - 0.6 - - - - - - -
26/07:00pm 9.6 NW 13 20 - - 0.6 - - - - - - -
26/06:30pm 10.8 NW 12 19 - - 0.4 - - - - - - -
26/06:00pm 13.1 NNW 15 24 - - 0.0 - - - - - - -
26/05:54pm 13.6 NNW 10 24 - - 0.0 - - - - - - -
26/05:30pm 14.3 N 4 5 - - 0.0 - - - - - - -
26/05:00pm 14.6 N 3 5 - - 0.0 - - - - - - -
26/04:30pm 14.5 NW 6 9 - - 0.0 - - - - - - -
26/04:00pm 14.8 WNW 8 11 - - 0.0 - - - - - - -
26/03:30pm 14.5 N 3 5 - - 0.0 - - - - - - -
26/03:00pm 14.6 NW 11 17 - - 0.0 - - - - - - -
26/02:30pm 15.3 NW 11 18 - - 0.0 - - - - - - -
26/02:00pm 15.9 NW 4 8 - - 0.0 - - - - - - -
26/01:30pm 15.6 NW 7 14 - - 0.0 - - - - - - -
26/01:00pm 14.5 NNW 10 17 - - 0.0 - - - - - - -
26/12:30pm 15.5 NNW 11 16 - - 0.0 - - - - - - -
26/12:00pm 15.7 NW 11 20 - - 0.0 - - - - - - -
26/11:30am 14.8 NW 9 18 - - 0.0 - - - - - - -
26/11:00am 13.3 NNW 12 17 - - 0.0 - - - - - - -
26/10:30am 12.9 NNW 9 14 - - 0.0 - - - - - - -
26/10:00am 13.5 NW 7 10 - - 0.0 - - - - - - -
26/09:30am 12.8 NW 7 13 - - 0.0 - - - - - - -
26/09:00am 11.6 NW 9 13 - - 0.0 - - - - - - -
26/08:30am 11.0 NW 6 12 - - 0.0 - - - - - - -
26/08:00am 10.0 NW 7 11 - - 0.0 - - - - - - -
26/07:30am 8.3 NW 6 9 - - 0.0 - - - - - - -
26/07:00am 7.3 NW 7 9 - - 0.0 - - - - - - -
26/06:30am 7.3 NW 10 13 - - 0.0 - - - - - - -
26/06:00am 7.2 NW 11 14 - - 0.0 - - - - - - -
26/05:30am 7.5 NW 8 10 - - 0.0 - - - - - - -
26/05:00am 7.6 NW 6 8 - - 0.0 - - - - - - -
26/04:30am 8.2 NW 6 8 - - 0.0 - - - - - - -
26/04:00am 7.8 NNW 6 8 - - 0.0 - - - - - - -
26/03:30am 7.6 NW 7 10 - - 0.0 - - - - - - -
26/03:00am 7.7 NNW 7 9 - - 0.0 - - - - - - -
26/02:30am 7.9 NNW 6 7 - - 0.0 - - - - - - -
26/02:00am 8.4 NNW 7 10 - - 0.0 - - - - - - -
26/01:30am 7.9 NW 8 11 - - 0.0 - - - - - - -
26/01:00am 7.8 NW 7 8 - - 0.0 - - - - - - -
26/12:30am 7.3 NW 9 11 - - 0.0 - - - - - - -
26/12:00am 6.9 NW 8 10 - - 0.0 - - - - - - -
 
Date/Time
EST
Temp
°C
Wind Pressure Rain since
9am
mm
Weather Cloud Vis
km
Sea
Height
m
Swell
Dir  Spd
kts
Gust
kts
hPa Trend Height
m
Period
s
Dir
25/11:30pm 7.5 NW 8 10 - - 0.0 - - - - - - -
25/11:00pm 7.2 NW 6 8 - - 0.0 - - - - - - -
25/10:30pm 8.0 NW 7 8 - - 0.0 - - - - - - -
25/10:00pm 8.4 NW 8 10 - - 0.0 - - - - - - -
25/09:30pm 8.1 NW 8 9 - - 0.0 - - - - - - -
25/09:00pm 8.6 NW 7 8 - - 0.0 - - - - - - -
25/08:30pm 8.9 NW 7 8 - - 0.0 - - - - - - -
25/08:00pm 9.3 WNW 4 6 - - 0.0 - - - - - - -
25/07:30pm 9.8 NW 4 6 - - 0.0 - - - - - - -
25/07:00pm 10.6 W 5 8 - - 0.0 - - - - - - -
25/06:30pm 10.7 W 5 9 - - 0.0 - - - - - - -
25/06:00pm 10.9 SSW 9 16 - - 0.0 - - - - - - -
25/05:30pm 12.1 SSW 11 18 - - 0.0 - - - - - - -
25/05:00pm 11.8 SSW 11 17 - - 0.0 - - - - - - -
25/04:30pm 11.6 SSW 11 16 - - 0.0 - - - - - - -
25/04:00pm 11.9 SSW 13 20 - - 0.0 - - - - - - -
25/03:30pm 13.1 SSW 13 18 - - 0.0 - - - - - - -
25/03:00pm 12.8 SSW 11 18 - - 0.0 - - - - - - -
25/02:30pm 12.5 SSW 11 16 - - 0.0 - - - - - - -
25/02:00pm 13.6 SW 11 15 - - 0.0 - - - - - - -
25/01:30pm 13.4 SSW 11 17 - - 0.0 - - - - - - -
25/01:00pm 13.9 SW 9 15 - - 0.0 - - - - - - -
25/12:30pm 13.1 SSW 11 17 - - 0.0 - - - - - - -
25/12:00pm 13.7 SSW 9 15 - - 0.0 - - - - - - -
25/11:30am 12.5 SW 11 19 - - 0.0 - - - - - - -
25/11:00am 11.9 W 14 21 - - 0.0 - - - - - - -
25/10:30am 11.8 WSW 14 22 - - 0.0 - - - - - - -
25/10:00am 11.7 W 13 21 - - 0.0 - - - - - - -
25/09:30am 11.4 WSW 9 16 - - 0.0 - - - - - - -
25/09:00am 10.6 W 11 16 - - 5.8 - - - - - - -
25/08:30am 9.7 W 10 14 - - 5.8 - - - - - - -
25/08:00am 9.2 W 9 17 - - 5.8 - - - - - - -
25/07:30am 8.8 W 8 14 - - 5.8 - - - - - - -
25/07:00am 8.3 W 10 14 - - 5.8 - - - - - - -
25/06:30am 7.6 NNW 3 7 - - 5.8 - - - - - - -
25/06:00am 7.9 NW 4 6 - - 5.8 - - - - - - -
25/05:30am 8.2 WNW 4 7 - - 5.8 - - - - - - -
25/05:00am 8.8 W 11 16 - - 5.8 - - - - - - -
25/04:30am 8.9 WNW 10 16 - - 5.8 - - - - - - -
25/04:00am 9.1 W 10 18 - - 5.8 - - - - - - -
25/03:30am 9.0 WSW 5 11 - - 5.8 - - - - - - -
25/03:00am 9.5 W 7 13 - - 5.8 - - - - - - -
25/02:30am 9.3 NNW 2 4 - - 5.8 - - - - - - -
25/02:00am 9.7 W 4 6 - - 5.8 - - - - - - -
25/01:30am 10.0 W 5 9 - - 5.8 - - - - - - -
25/01:00am 10.3 W 4 6 - - 5.8 - - - - - - -
25/12:30am 10.5 W 7 11 - - 5.8 - - - - - - -
25/12:00am 10.6 WSW 6 8 - - 5.8 - - - - - - -

Other Formats:

Comma delimited format used in spreadsheet applications
http://www.bom.gov.au/fwo/IDV60701/IDV60701.94846.axf

JavaScript Object Notation format (JSON) in row-major order
http://www.bom.gov.au/fwo/IDV60701/IDV60701.94846.json